Time;durP1;ratioP1;P1;durP2;ratioP2;P2;SDS_P1;SDS_P2;PMS_P1;PMS_P2;Temp;Humidity;BMP_temperature;BMP_pressure;BME280_temperature;BME280_humidity;BME280_pressure;Samples;Min_cycle;Max_cycle;Signal;HPM_P1;HPM_P2
2022/07/05 00:02:10;;;;;;;5.03;3.28;;;;;;;13.20;100.00;102259.16;5051068;28;20153;-77
2022/07/05 00:04:36;;;;;;;4.68;3.05;;;;;;;13.16;100.00;102263.03;5049407;28;20032;-75
2022/07/05 00:07:19;;;;;;;2.92;2.60;;;;;;;13.11;100.00;102256.38;5050622;28;20029;-74
2022/07/05 00:09:47;;;;;;;5.70;3.25;;;;;;;13.09;100.00;102268.97;5050649;28;20124;-77
2022/07/05 00:12:13;;;;;;;5.25;3.30;;;;;;;13.02;100.00;102264.13;5050704;28;20126;-75
2022/07/05 00:14:39;;;;;;;3.35;3.05;;;;;;;12.98;100.00;102259.97;5050918;28;20037;-75
2022/07/05 00:17:05;;;;;;;3.95;3.17;;;;;;;12.91;100.00;102266.78;5050792;28;20029;-76
2022/07/05 00:19:30;;;;;;;4.43;3.15;;;;;;;12.84;100.00;102266.41;5048805;28;20075;-76
2022/07/05 00:21:57;;;;;;;3.67;2.80;;;;;;;12.82;100.00;102262.16;5048751;28;20025;-76
2022/07/05 00:24:22;;;;;;;8.13;4.20;;;;;;;12.85;100.00;102262.78;5050838;28;20057;-75
2022/07/05 00:26:48;;;;;;;6.25;4.25;;;;;;;12.88;100.00;102264.34;5033907;28;20406;-75
2022/07/05 00:29:13;;;;;;;7.10;4.18;;;;;;;12.85;100.00;102267.25;5050556;28;20033;-74
2022/07/05 00:31:39;;;;;;;4.65;3.72;;;;;;;12.78;100.00;102264.22;5050444;28;20041;-75
2022/07/05 00:34:04;;;;;;;6.80;4.15;;;;;;;12.79;100.00;102262.38;5050817;28;20036;-76
2022/07/05 00:36:29;;;;;;;4.63;4.22;;;;;;;12.74;100.00;102260.06;5050387;28;20456;-77
2022/07/05 00:38:55;;;;;;;11.68;4.40;;;;;;;12.71;100.00;102265.66;5050111;28;20402;-76
2022/07/05 00:41:20;;;;;;;6.45;4.50;;;;;;;12.67;100.00;102262.38;5048661;28;20063;-76
2022/07/05 00:43:54;;;;;;;6.82;4.00;;;;;;;12.62;100.00;102267.22;5049812;28;20425;-77
2022/07/05 00:46:20;;;;;;;9.38;4.15;;;;;;;12.60;100.00;102262.94;5050049;28;20144;-76
2022/07/05 00:48:45;;;;;;;6.07;3.33;;;;;;;12.50;100.00;102265.50;5050305;28;20067;-76
2022/07/05 00:51:10;;;;;;;3.53;2.97;;;;;;;12.40;100.00;102264.47;5050080;28;20045;-76
2022/07/05 00:53:36;;;;;;;10.52;3.63;;;;;;;12.33;100.00;102267.63;5050045;28;20119;-76
2022/07/05 00:56:01;;;;;;;5.53;3.10;;;;;;;12.28;100.00;102264.44;5048789;28;20424;-76
2022/07/05 00:58:28;;;;;;;6.07;3.72;;;;;;;12.23;100.00;102261.28;5050171;28;20122;-76
2022/07/05 01:00:53;;;;;;;5.80;3.50;;;;;;;12.17;100.00;102267.91;5050135;28;20114;-76
2022/07/05 01:03:19;;;;;;;3.65;2.83;;;;;;;12.10;100.00;102265.81;5048399;28;20472;-77
2022/07/05 01:05:44;;;;;;;4.60;2.95;;;;;;;12.04;100.00;102274.28;5049914;28;20104;-77
2022/07/05 01:08:11;;;;;;;8.18;4.35;;;;;;;12.02;100.00;102276.19;5049916;28;20053;-76
2022/07/05 01:10:37;;;;;;;3.53;2.75;;;;;;;11.94;100.00;102268.75;5048563;28;20136;-77
2022/07/05 01:13:03;;;;;;;4.78;3.15;;;;;;;11.89;100.00;102269.06;5049665;28;20029;-76
2022/07/05 01:15:29;;;;;;;8.75;4.57;;;;;;;11.94;100.00;102271.44;5049698;28;20025;-77
2022/07/05 01:17:54;;;;;;;7.65;3.58;;;;;;;11.91;100.00;102268.97;5050029;28;20033;-77
2022/07/05 01:20:20;;;;;;;6.13;3.17;;;;;;;11.82;100.00;102270.47;5049791;28;20108;-76
2022/07/05 01:22:56;;;;;;;3.40;3.05;;;;;;;11.77;100.00;102269.97;5049436;28;20128;-77
2022/07/05 01:25:24;;;;;;;5.65;3.50;;;;;;;11.77;100.00;102276.16;5049924;28;20101;-77
2022/07/05 01:27:50;;;;;;;8.63;4.53;;;;;;;11.78;100.00;102279.69;5049787;28;20028;-76
2022/07/05 01:30:16;;;;;;;12.98;4.93;;;;;;;11.78;100.00;102274.34;5049986;28;20117;-76
2022/07/05 01:32:42;;;;;;;7.65;5.00;;;;;;;11.82;100.00;102273.16;5049895;28;20144;-76
2022/07/05 01:35:09;;;;;;;7.28;5.10;;;;;;;11.79;100.00;102271.59;5049824;28;20501;-78
2022/07/05 01:37:35;;;;;;;6.82;4.00;;;;;;;11.74;100.00;102272.88;5049719;28;20111;-77
2022/07/05 01:40:02;;;;;;;6.35;3.70;;;;;;;11.65;100.00;102266.38;5048172;28;20058;-75
2022/07/05 01:42:28;;;;;;;4.65;3.47;;;;;;;11.60;100.00;102279.22;5050695;28;20529;-69
2022/07/05 01:44:53;;;;;;;4.40;3.33;;;;;;;11.57;100.00;102277.63;5052137;28;20128;-70
2022/07/05 01:47:18;;;;;;;4.00;3.60;;;;;;;11.55;100.00;102271.53;5051374;28;20033;-69
2022/07/05 01:49:48;;;;;;;8.77;4.95;;;;;;;11.58;100.00;102265.13;5052559;28;20385;-74
2022/07/05 01:52:16;;;;;;;8.20;5.10;;;;;;;11.59;100.00;102270.34;5052524;28;20072;-69
2022/07/05 01:54:41;;;;;;;10.02;4.88;;;;;;;11.56;100.00;102267.91;5052627;28;20033;-69
2022/07/05 01:57:07;;;;;;;7.50;4.40;;;;;;;11.53;100.00;102273.47;5052612;28;20048;-69
2022/07/05 01:59:34;;;;;;;5.25;4.20;;;;;;;11.51;100.00;102275.41;5052530;28;20044;-69
2022/07/05 02:01:59;;;;;;;8.68;5.00;;;;;;;11.52;100.00;102274.41;5052469;28;20037;-69
2022/07/05 02:04:26;;;;;;;7.18;3.55;;;;;;;11.47;100.00;102274.75;5053896;28;20048;-69
2022/07/05 02:06:51;;;;;;;10.27;4.90;;;;;;;11.43;100.00;102273.25;5056277;28;20040;-70
2022/07/05 02:09:17;;;;;;;7.30;3.90;;;;;;;11.44;100.00;102276.78;5056618;28;20477;-70
2022/07/05 02:11:42;;;;;;;8.95;4.50;;;;;;;11.44;100.00;102266.13;5056429;28;20060;-69
2022/07/05 02:14:07;;;;;;;6.72;4.60;;;;;;;11.43;100.00;102269.75;5056392;28;20071;-69
2022/07/05 02:16:33;;;;;;;5.68;3.80;;;;;;;11.35;100.00;102270.28;5055892;28;20029;-69
2022/07/05 02:18:59;;;;;;;6.47;3.50;;;;;;;11.27;100.00;102260.19;5055829;28;20446;-70
2022/07/05 02:21:24;;;;;;;5.05;3.60;;;;;;;11.25;100.00;102263.91;5055738;28;20121;-69
2022/07/05 02:23:50;;;;;;;6.47;4.35;;;;;;;11.30;100.00;102267.13;5056623;28;20025;-70
2022/07/05 02:26:16;;;;;;;8.35;4.70;;;;;;;11.28;100.00;102269.03;5055979;28;20029;-70
2022/07/05 02:28:42;;;;;;;5.78;5.00;;;;;;;11.31;100.00;102267.97;5055933;28;20025;-70
2022/07/05 02:31:07;;;;;;;8.95;5.95;;;;;;;11.38;100.00;102269.22;5055716;28;20067;-70
2022/07/05 02:33:33;;;;;;;7.85;5.00;;;;;;;11.43;100.00;102272.41;5055996;28;20033;-70
2022/07/05 02:36:06;;;;;;;5.00;3.75;;;;;;;11.52;100.00;102268.25;5056117;28;20029;-69
2022/07/05 02:38:32;;;;;;;4.40;4.00;;;;;;;11.62;100.00;102263.94;5056218;28;20079;-69
2022/07/05 02:40:57;;;;;;;6.47;4.18;;;;;;;11.71;100.00;102268.59;5055761;28;20033;-70
2022/07/05 02:43:22;;;;;;;5.28;4.10;;;;;;;11.83;100.00;102266.84;5055653;28;20057;-69
2022/07/05 02:45:48;;;;;;;5.35;4.20;;;;;;;11.93;100.00;102267.09;5055616;28;20466;-69
2022/07/05 02:48:13;;;;;;;4.40;4.00;;;;;;;12.01;100.00;102263.84;5054131;28;20505;-69
2022/07/05 02:50:39;;;;;;;7.72;5.03;;;;;;;12.13;100.00;102276.25;5055517;28;20040;-70
2022/07/05 02:53:04;;;;;;;8.02;5.35;;;;;;;12.22;100.00;102269.41;5055079;28;20047;-69
2022/07/05 02:55:29;;;;;;;10.18;5.85;;;;;;;12.29;100.00;102268.81;5055469;28;20109;-69
2022/07/05 02:57:55;;;;;;;6.47;5.55;;;;;;;12.37;100.00;102275.41;5054958;28;20075;-69
2022/07/05 03:00:20;;;;;;;5.40;4.90;;;;;;;12.41;100.00;102274.19;5055600;28;20128;-69
2022/07/05 03:02:45;;;;;;;7.78;5.20;;;;;;;12.43;100.00;102274.94;5055299;28;20385;-70
2022/07/05 03:05:11;;;;;;;9.50;6.00;;;;;;;12.46;100.00;102272.88;5055189;28;20037;-70
2022/07/05 03:07:36;;;;;;;6.95;5.55;;;;;;;12.50;100.00;102273.50;5054075;28;20445;-69
2022/07/05 03:10:02;;;;;;;6.70;5.80;;;;;;;12.51;100.00;102268.03;5054949;28;20094;-69
2022/07/05 03:12:27;;;;;;;9.07;5.72;;;;;;;12.52;100.00;102274.22;5054727;28;20124;-69
2022/07/05 03:14:53;;;;;;;9.02;5.93;;;;;;;12.51;100.00;102272.53;5053781;28;20041;-70
2022/07/05 03:17:18;;;;;;;6.97;5.97;;;;;;;12.50;100.00;102274.34;5054561;28;20102;-71
2022/07/05 03:19:43;;;;;;;8.10;5.25;;;;;;;12.49;100.00;102285.13;5053965;28;20377;-69
2022/07/05 03:22:09;;;;;;;6.97;5.50;;;;;;;12.44;100.00;102282.81;5054738;28;20029;-70
2022/07/05 03:24:34;;;;;;;7.75;5.45;;;;;;;12.45;100.00;102278.31;5054932;28;20061;-70
2022/07/05 03:26:59;;;;;;;9.38;6.07;;;;;;;12.47;100.00;102287.09;5036751;28;20025;-70
2022/07/05 03:29:25;;;;;;;8.38;5.45;;;;;;;12.52;100.00;102296.44;5054294;28;20025;-70
2022/07/05 03:31:50;;;;;;;12.65;6.38;;;;;;;12.55;100.00;102290.00;5053390;28;20134;-69
2022/07/05 03:34:16;;;;;;;8.55;6.57;;;;;;;12.60;100.00;102287.84;5054574;28;20028;-71
2022/07/05 03:36:41;;;;;;;8.55;6.75;;;;;;;12.66;100.00;102284.72;5053169;28;20044;-69
2022/07/05 03:39:06;;;;;;;10.50;5.93;;;;;;;12.66;100.00;102290.06;5054870;28;20064;-70
2022/07/05 03:41:32;;;;;;;9.40;6.05;;;;;;;12.69;100.00;102284.47;5055076;28;20036;-69
2022/07/05 03:43:57;;;;;;;9.88;7.13;;;;;;;12.70;100.00;102291.53;5054467;28;20476;-70
2022/07/05 03:46:22;;;;;;;9.52;6.43;;;;;;;12.69;100.00;102292.47;5054051;28;20024;-70
2022/07/05 03:48:48;;;;;;;9.77;6.07;;;;;;;12.70;100.00;102294.19;5054047;28;20060;-70
2022/07/05 03:51:13;;;;;;;6.57;4.90;;;;;;;12.72;100.00;102293.19;5054158;28;20029;-70
2022/07/05 03:53:39;;;;;;;9.82;5.95;;;;;;;12.77;100.00;102291.06;5054356;28;20167;-71
2022/07/05 03:56:04;;;;;;;10.25;5.70;;;;;;;12.77;100.00;102291.06;5054395;28;20451;-71
2022/07/05 03:58:30;;;;;;;9.48;5.38;;;;;;;12.74;100.00;102296.63;5054256;28;20479;-71
2022/07/05 04:00:55;;;;;;;8.13;4.95;;;;;;;12.68;100.00;102293.44;5054138;28;20029;-71
2022/07/05 04:03:20;;;;;;;9.65;5.60;;;;;;;12.62;100.00;102293.91;5054076;28;20037;-70
2022/07/05 04:05:46;;;;;;;10.05;6.18;;;;;;;12.58;100.00;102296.94;5053291;28;20068;-71
2022/07/05 04:08:11;;;;;;;8.30;5.13;;;;;;;12.50;100.00;102306.38;5052720;28;20122;-70
2022/07/05 04:10:37;;;;;;;7.75;4.78;;;;;;;12.45;100.00;102305.00;5053824;28;20025;-70
2022/07/05 04:13:02;;;;;;;8.80;4.93;;;;;;;12.39;100.00;102305.47;5053548;28;20473;-74
2022/07/05 04:15:27;;;;;;;6.22;4.57;;;;;;;12.32;100.00;102303.28;5053661;28;20124;-70
2022/07/05 04:17:54;;;;;;;5.22;4.60;;;;;;;12.26;100.00;102309.06;5053867;28;20469;-70
2022/07/05 04:20:21;;;;;;;9.88;5.20;;;;;;;12.21;100.00;102305.91;5054014;28;20037;-70
2022/07/05 04:22:48;;;;;;;6.32;5.30;;;;;;;12.21;100.00;102311.25;5053948;28;20035;-70
2022/07/05 04:25:16;;;;;;;8.98;5.50;;;;;;;12.22;100.00;102306.75;5053364;28;20362;-71
2022/07/05 04:27:42;;;;;;;8.40;4.88;;;;;;;12.17;100.00;102307.09;5052597;28;20036;-70
2022/07/05 04:30:09;;;;;;;6.88;4.72;;;;;;;12.12;100.00;102311.91;5052887;28;20128;-71
2022/07/05 04:32:34;;;;;;;5.63;3.83;;;;;;;12.07;100.00;102312.25;5052915;28;20461;-70
2022/07/05 04:34:59;;;;;;;6.07;4.32;;;;;;;12.05;100.00;102310.69;5053012;28;20043;-70
2022/07/05 04:37:25;;;;;;;6.18;4.00;;;;;;;12.05;100.00;102311.53;5035747;28;20127;-71
2022/07/05 04:39:50;;;;;;;8.13;5.13;;;;;;;12.03;100.00;102305.44;5054109;28;20060;-70
2022/07/05 04:42:15;;;;;;;4.10;3.70;;;;;;;12.07;100.00;102308.72;5052168;28;20035;-71
2022/07/05 04:44:41;;;;;;;4.70;3.78;;;;;;;12.07;100.00;102306.91;5053845;28;20405;-71
2022/07/05 04:47:06;;;;;;;4.35;3.88;;;;;;;12.08;100.00;102308.63;5053187;28;20492;-75
2022/07/05 04:49:32;;;;;;;5.90;3.88;;;;;;;12.10;100.00;102309.34;5052159;28;20041;-71
2022/07/05 04:51:57;;;;;;;5.80;4.10;;;;;;;12.16;100.00;102313.38;5053552;28;20048;-71
2022/07/05 04:54:23;;;;;;;5.32;4.28;;;;;;;12.20;100.00;102319.38;5052147;28;20040;-69
2022/07/05 04:56:48;;;;;;;5.50;4.15;;;;;;;12.26;100.00;102317.09;5051972;28;20595;-72
2022/07/05 04:59:13;;;;;;;4.60;3.78;;;;;;;12.31;100.00;102320.25;5053262;28;20040;-72
2022/07/05 05:01:39;;;;;;;4.68;3.75;;;;;;;12.43;100.00;102322.97;5053332;28;20080;-70
2022/07/05 05:04:04;;;;;;;6.28;4.82;;;;;;;12.59;100.00;102315.50;5035358;28;20469;-70
2022/07/05 05:06:29;;;;;;;5.93;5.05;;;;;;;12.83;100.00;102318.13;5052251;28;20037;-70
2022/07/05 05:08:55;;;;;;;6.63;5.30;;;;;;;13.11;100.00;102315.16;5053159;28;20466;-70
2022/07/05 05:11:20;;;;;;;7.70;5.20;;;;;;;13.37;100.00;102316.63;5052975;28;20476;-70
2022/07/05 05:13:46;;;;;;;8.48;4.78;;;;;;;13.63;100.00;102326.22;5053124;28;20458;-71
2022/07/05 05:16:12;;;;;;;5.20;4.63;;;;;;;13.86;100.00;102324.38;5052946;28;20469;-70
2022/07/05 05:18:38;;;;;;;9.15;4.43;;;;;;;14.08;100.00;102320.81;5052758;28;20128;-69
2022/07/05 05:21:04;;;;;;;7.70;4.32;;;;;;;14.31;100.00;102323.41;5052922;28;20381;-70
2022/07/05 05:23:29;;;;;;;5.53;3.58;;;;;;;14.53;100.00;102327.84;5051643;28;20151;-70
2022/07/05 05:25:54;;;;;;;6.07;3.40;;;;;;;14.71;100.00;102328.16;5052797;28;20040;-70
2022/07/05 05:28:20;;;;;;;7.13;2.72;;;;;;;14.88;100.00;102327.53;5052819;28;20380;-70
2022/07/05 05:30:46;;;;;;;7.03;2.20;;;;;;;15.02;100.00;102338.91;5052945;28;20517;-70
2022/07/05 05:33:12;;;;;;;3.55;2.13;;;;;;;15.18;100.00;102335.75;5053373;28;20045;-71
2022/07/05 05:35:38;;;;;;;4.25;2.05;;;;;;;15.33;100.00;102335.28;5035329;28;20033;-69
2022/07/05 05:38:03;;;;;;;2.90;2.05;;;;;;;15.48;100.00;102340.25;5052927;28;20027;-70
2022/07/05 05:40:29;;;;;;;4.47;2.20;;;;;;;15.61;96.38;102342.72;5057171;28;20462;-70
2022/07/05 05:42:56;;;;;;;2.47;1.98;;;;;;;15.74;95.17;102340.66;5056775;28;20442;-69
2022/07/05 05:45:22;;;;;;;4.10;2.05;;;;;;;15.90;94.40;102342.00;5056866;28;20451;-70
2022/07/05 05:47:53;;;;;;;2.55;1.77;;;;;;;16.01;94.03;102341.88;5055662;28;20074;-70
2022/07/05 05:50:23;;;;;;;5.57;1.90;;;;;;;16.12;91.60;102354.34;5056660;28;20086;-69
2022/07/05 05:52:49;;;;;;;6.03;2.10;;;;;;;16.23;89.89;102351.53;5056581;28;20766;-70
2022/07/05 05:55:15;;;;;;;3.08;1.70;;;;;;;16.31;87.45;102356.19;5056801;28;20025;-69
2022/07/05 05:57:41;;;;;;;6.63;1.85;;;;;;;16.38;86.42;102351.97;5055212;28;20029;-69
2022/07/05 06:00:08;;;;;;;8.27;1.60;;;;;;;16.46;85.91;102352.09;5055204;28;20492;-69
2022/07/05 06:02:34;;;;;;;2.65;1.35;;;;;;;16.53;84.77;102347.88;5056447;28;20036;-68
2022/07/05 06:04:59;;;;;;;2.92;1.42;;;;;;;16.62;83.83;102348.84;5056673;28;20032;-69
2022/07/05 06:07:25;;;;;;;8.60;1.30;;;;;;;16.69;83.10;102358.06;5056847;28;20091;-69
2022/07/05 06:09:50;;;;;;;3.63;1.45;;;;;;;16.76;82.74;102361.00;5056039;28;20032;-69
2022/07/05 06:12:16;;;;;;;4.90;1.40;;;;;;;16.83;81.39;102355.91;5056611;28;20029;-69
2022/07/05 06:14:41;;;;;;;4.93;1.40;;;;;;;16.96;80.73;102361.00;5056007;28;20033;-70
2022/07/05 06:17:06;;;;;;;3.70;1.33;;;;;;;17.08;78.23;102360.72;5056012;28;20091;-69
2022/07/05 06:19:32;;;;;;;2.15;1.23;;;;;;;17.19;76.29;102358.84;5056662;28;20044;-70
2022/07/05 06:21:57;;;;;;;3.83;1.30;;;;;;;17.27;76.41;102361.63;5056370;28;20041;-70
2022/07/05 06:24:22;;;;;;;3.20;1.15;;;;;;;17.27;73.47;102365.19;5056077;28;20025;-70
2022/07/05 06:26:48;;;;;;;3.42;1.23;;;;;;;17.32;72.46;102369.28;5055929;28;20065;-70
2022/07/05 06:29:13;;;;;;;3.60;1.00;;;;;;;17.43;72.34;102375.31;5056209;28;20029;-70
2022/07/05 06:31:38;;;;;;;2.72;1.13;;;;;;;17.58;69.56;102372.16;5055325;28;20513;-70
2022/07/05 06:34:04;;;;;;;4.43;1.20;;;;;;;17.71;67.41;102371.81;5055892;28;20040;-70
2022/07/05 06:36:29;;;;;;;5.13;1.40;;;;;;;17.80;66.61;102370.91;5055550;28;20117;-70
2022/07/05 06:38:54;;;;;;;4.97;1.25;;;;;;;17.84;66.83;102375.00;5055978;28;20059;-70
2022/07/05 06:41:20;;;;;;;3.25;1.25;;;;;;;17.86;65.03;102375.69;5038054;28;20063;-70
2022/07/05 06:43:45;;;;;;;7.72;1.20;;;;;;;17.91;62.85;102378.81;5054912;28;20139;-70
2022/07/05 06:46:10;;;;;;;1.95;0.93;;;;;;;17.94;64.22;102369.59;5056114;28;20067;-70
2022/07/05 06:48:36;;;;;;;3.80;1.60;;;;;;;17.93;63.50;102373.31;5054520;28;20033;-70
2022/07/05 06:51:01;;;;;;;3.15;1.10;;;;;;;17.92;63.04;102371.59;5055421;28;20037;-71
2022/07/05 06:53:27;;;;;;;4.03;1.20;;;;;;;17.90;62.72;102371.75;5055609;28;20083;-69
2022/07/05 06:55:52;;;;;;;2.40;1.00;;;;;;;17.82;62.91;102379.69;5038195;28;20090;-71
2022/07/05 06:58:18;;;;;;;3.72;1.08;;;;;;;17.90;64.51;102382.53;5054281;28;20033;-70
2022/07/05 07:00:44;;;;;;;3.45;1.23;;;;;;;18.03;64.01;102384.00;5054846;28;20124;-70
2022/07/05 07:03:09;;;;;;;5.28;1.00;;;;;;;18.14;65.48;102381.13;5055171;28;20037;-72
2022/07/05 07:05:35;;;;;;;10.75;1.65;;;;;;;18.23;63.98;102387.44;5055439;28;20032;-73
2022/07/05 07:10:45;;;;;;;5.85;1.67;;;;;;;18.22;64.10;102388.44;5055541;28;20067;-71
2022/07/05 07:13:10;;;;;;;3.97;1.10;;;;;;;18.28;65.07;102385.97;5054917;28;20467;-73
2022/07/05 07:15:37;;;;;;;2.83;1.10;;;;;;;18.34;64.16;102397.97;5054866;28;20033;-71
2022/07/05 07:18:03;;;;;;;4.47;1.33;;;;;;;18.47;64.53;102398.44;5054821;28;20148;-72
2022/07/05 07:20:29;;;;;;;4.45;1.30;;;;;;;18.61;64.02;102397.06;5054854;28;20124;-72
2022/07/05 07:22:54;;;;;;;6.38;1.40;;;;;;;18.78;62.97;102391.81;5055032;28;20100;-71
2022/07/05 07:25:20;;;;;;;5.03;1.10;;;;;;;18.93;61.73;102395.69;5053917;28;20117;-73
2022/07/05 07:27:47;;;;;;;7.15;1.20;;;;;;;19.04;60.02;102399.97;5054372;28;20375;-72
2022/07/05 07:30:14;;;;;;;1.70;0.90;;;;;;;19.03;58.56;102399.16;5054888;28;20453;-72
2022/07/05 07:32:40;;;;;;;6.05;1.00;;;;;;;19.12;59.68;102408.16;5054458;28;20052;-72
2022/07/05 07:35:07;;;;;;;5.70;1.08;;;;;;;19.16;56.91;102406.81;5054640;28;20354;-73
2022/07/05 07:37:32;;;;;;;2.92;0.85;;;;;;;19.21;57.88;102403.63;5054486;28;20025;-72
2022/07/05 07:39:58;;;;;;;2.67;1.20;;;;;;;19.26;57.33;102408.53;5054310;28;20036;-72
2022/07/05 07:42:24;;;;;;;5.82;1.50;;;;;;;19.36;58.65;102403.88;5054553;28;20039;-73
2022/07/05 07:44:49;;;;;;;2.25;1.00;;;;;;;19.48;56.52;102408.03;5052965;28;20355;-72
2022/07/05 07:47:15;;;;;;;5.82;1.00;;;;;;;19.56;56.85;102410.75;5054155;28;20445;-72
2022/07/05 07:49:41;;;;;;;5.75;1.25;;;;;;;19.75;57.99;102411.56;5054746;28;20029;-72
2022/07/05 07:52:06;;;;;;;2.10;1.05;;;;;;;20.05;58.18;102409.34;5054279;28;20465;-73
2022/07/05 07:54:32;;;;;;;4.25;1.20;;;;;;;20.27;55.68;102413.25;5054232;28;20044;-75
2022/07/05 07:56:59;;;;;;;1.83;1.10;;;;;;;20.28;55.27;102406.84;5054264;28;20029;-71
2022/07/05 07:59:24;;;;;;;2.53;1.10;;;;;;;20.19;57.19;102416.78;5054971;28;20362;-72
2022/07/05 08:01:50;;;;;;;3.75;1.30;;;;;;;19.99;56.88;102421.63;5053375;28;20146;-72
2022/07/05 08:04:15;;;;;;;4.53;1.30;;;;;;;20.12;58.22;102423.00;5053310;28;20453;-71
2022/07/05 08:06:41;;;;;;;3.95;1.17;;;;;;;20.38;58.17;102420.22;5054719;28;20036;-71
2022/07/05 08:09:07;;;;;;;7.07;1.48;;;;;;;20.59;57.93;102426.00;5053982;28;20037;-71
2022/07/05 08:11:32;;;;;;;6.00;1.38;;;;;;;20.65;56.39;102424.47;5054437;28;20043;-71
2022/07/05 08:13:57;;;;;;;4.25;0.90;;;;;;;20.55;52.84;102429.19;5054211;28;20033;-71
2022/07/05 08:16:23;;;;;;;4.47;1.20;;;;;;;20.35;54.56;102434.06;5053272;28;20435;-71
2022/07/05 08:21:32;;;;;;;3.85;1.52;;;;;;;20.12;56.10;102429.25;5054325;28;20083;-71
2022/07/05 08:24:03;;;;;;;4.78;1.00;;;;;;;20.18;57.58;102425.06;5054486;28;20036;-71
2022/07/05 08:26:32;;;;;;;2.53;1.10;;;;;;;20.22;56.06;102423.72;5052571;28;20029;-70
2022/07/05 08:28:59;;;;;;;5.32;1.10;;;;;;;20.46;57.53;102424.78;5053753;28;20025;-71
2022/07/05 08:31:26;;;;;;;4.82;1.27;;;;;;;20.66;54.22;102430.75;5053807;28;20112;-71
2022/07/05 08:33:51;;;;;;;4.82;1.50;;;;;;;20.60;54.49;102437.63;5054393;28;20040;-71
2022/07/05 08:36:17;;;;;;;4.35;1.20;;;;;;;20.84;54.52;102433.31;5052224;28;20068;-71
2022/07/05 08:38:42;;;;;;;2.85;1.08;;;;;;;21.20;55.08;102424.81;5052290;28;20447;-71
2022/07/05 08:41:10;;;;;;;9.60;1.40;;;;;;;21.49;54.01;102438.66;5053382;28;20033;-71
2022/07/05 08:43:39;;;;;;;4.68;1.50;;;;;;;21.93;50.82;102428.38;5053850;28;20060;-71
2022/07/05 08:46:08;;;;;;;2.53;1.00;;;;;;;22.18;49.01;102429.09;5052548;28;20033;-71
2022/07/05 08:48:41;;;;;;;9.55;1.20;;;;;;;22.45;48.57;102433.22;5053542;28;20032;-71
2022/07/05 08:51:12;;;;;;;4.35;1.30;;;;;;;22.98;48.62;102432.50;5054184;28;20311;-71
2022/07/05 08:53:38;;;;;;;3.53;1.30;;;;;;;23.61;45.61;102438.50;5053552;28;20056;-71
2022/07/05 08:56:05;;;;;;;3.15;1.38;;;;;;;23.58;46.41;102436.16;5053086;28;20397;-70
2022/07/05 08:58:31;;;;;;;4.63;1.30;;;;;;;23.92;44.84;102432.88;5051927;28;20025;-72
2022/07/05 09:00:57;;;;;;;5.53;1.23;;;;;;;24.46;42.98;102431.59;5053500;28;20047;-70
2022/07/05 09:03:25;;;;;;;5.90;1.42;;;;;;;24.99;42.75;102430.44;5053034;28;20033;-71
2022/07/05 09:05:55;;;;;;;5.53;1.42;;;;;;;25.68;41.64;102435.16;5053669;28;20442;-71
2022/07/05 09:08:21;;;;;;;4.00;1.20;;;;;;;26.41;38.27;102431.03;5053621;28;20120;-71
2022/07/05 09:10:47;;;;;;;3.25;1.20;;;;;;;26.71;36.63;102433.44;5053216;28;20496;-71
2022/07/05 09:13:12;;;;;;;4.82;1.25;;;;;;;25.58;38.55;102442.00;5052977;28;20044;-71
2022/07/05 09:15:39;;;;;;;7.88;1.30;;;;;;;25.94;39.56;102444.47;5053000;28;20039;-71
2022/07/05 09:18:04;;;;;;;4.90;1.40;;;;;;;26.67;38.17;102437.63;5051797;28;20079;-71
2022/07/05 09:20:30;;;;;;;4.25;1.10;;;;;;;26.96;37.26;102439.13;5053214;28;20041;-71
2022/07/05 09:22:56;;;;;;;2.13;1.20;;;;;;;27.37;36.45;102439.94;5053057;28;20550;-71
2022/07/05 09:25:23;;;;;;;4.57;1.02;;;;;;;27.71;35.69;102444.25;5052868;28;20033;-70
2022/07/05 09:27:49;;;;;;;4.38;1.10;;;;;;;28.00;35.02;102443.97;5053280;28;20029;-72
2022/07/05 09:30:37;;;;;;;3.67;1.20;;;;;;;28.19;34.61;102437.56;5052775;28;20473;-71
2022/07/05 09:33:14;;;;;;;5.75;1.40;;;;;;;27.89;33.99;102445.47;5053197;28;20032;-71
2022/07/05 09:35:42;;;;;;;3.78;1.48;;;;;;;27.83;35.00;102455.38;5052544;28;20299;-70
2022/07/05 09:38:18;;;;;;;3.75;1.27;;;;;;;28.10;34.58;102447.09;5051530;28;20479;-71
2022/07/05 09:40:49;;;;;;;3.33;1.33;;;;;;;27.99;34.07;102455.97;5052921;28;20044;-71
2022/07/05 09:43:23;;;;;;;5.32;1.38;;;;;;;28.04;34.38;102462.47;5051388;28;20084;-71
2022/07/05 09:46:02;;;;;;;5.85;1.27;;;;;;;27.44;34.87;102466.19;5052571;28;20073;-71
2022/07/05 09:48:32;;;;;;;2.63;1.23;;;;;;;25.92;37.58;102473.84;5052593;28;20028;-72
2022/07/05 09:51:24;;;;;;;5.07;1.48;;;;;;;25.91;37.36;102469.44;5053412;28;20037;-71
2022/07/05 09:53:51;;;;;;;4.53;1.20;;;;;;;26.22;34.64;102468.13;5050215;28;20072;-72
2022/07/05 09:56:17;;;;;;;3.38;1.40;;;;;;;26.76;34.78;102476.47;5052209;28;20322;-71
2022/07/05 09:58:44;;;;;;;3.03;1.20;;;;;;;27.25;34.30;102467.03;5052769;28;20025;-71
2022/07/05 10:01:25;;;;;;;4.35;1.23;;;;;;;27.55;33.83;102466.59;5052921;28;20036;-71
2022/07/05 10:03:58;;;;;;;3.85;1.15;;;;;;;26.85;33.50;102467.88;5051407;28;20040;-72
2022/07/05 10:06:25;;;;;;;3.10;1.00;;;;;;;26.72;34.38;102465.13;5052948;28;20115;-71
2022/07/05 10:08:52;;;;;;;4.45;1.25;;;;;;;27.27;32.77;102471.25;5052697;28;20036;-72
2022/07/05 10:11:21;;;;;;;3.65;1.20;;;;;;;27.14;31.33;102467.66;5052586;28;20113;-71
2022/07/05 10:13:53;;;;;;;3.95;1.30;;;;;;;27.09;31.95;102471.03;5052931;28;20037;-72
2022/07/05 10:16:21;;;;;;;5.15;1.08;;;;;;;27.18;33.64;102468.91;5052521;28;20032;-80
2022/07/05 10:18:51;;;;;;;3.42;1.00;;;;;;;27.34;32.52;102473.97;5051541;28;20028;-79
2022/07/05 10:21:17;;;;;;;5.30;1.43;;;;;;;27.18;32.90;102468.91;5053226;28;20029;-84
2022/07/05 10:23:48;;;;;;;3.50;1.38;;;;;;;27.32;32.02;102473.34;5053054;28;20759;-80
2022/07/05 10:26:15;;;;;;;4.05;1.20;;;;;;;27.26;31.93;102466.00;5056261;28;20029;-82
2022/07/05 10:28:49;;;;;;;2.67;1.05;;;;;;;27.85;30.74;102477.03;5055989;28;20035;-79
2022/07/05 10:31:16;;;;;;;6.57;1.25;;;;;;;27.28;32.95;102478.38;5056277;28;20028;-77
2022/07/05 10:33:42;;;;;;;2.28;1.13;;;;;;;27.50;32.34;102471.84;5056041;28;20500;-78
2022/07/05 10:36:10;;;;;;;3.50;1.00;;;;;;;27.75;31.74;102475.59;5056113;28;20044;-80
2022/07/05 10:38:38;;;;;;;3.83;1.00;;;;;;;27.03;30.99;102480.88;5055916;28;20116;-80
2022/07/05 10:41:06;;;;;;;2.72;1.20;;;;;;;25.62;33.41;102487.72;5055845;28;20056;-79
2022/07/05 10:43:32;;;;;;;2.45;1.08;;;;;;;25.20;36.41;102491.34;5055688;28;20049;-80
2022/07/05 10:45:58;;;;;;;7.05;1.10;;;;;;;25.57;34.34;102492.09;5055775;28;20051;-82
2022/07/05 10:48:26;;;;;;;2.17;0.82;;;;;;;26.11;33.64;102495.97;5055850;28;20044;-82
2022/07/05 10:50:59;;;;;;;7.28;1.25;;;;;;;26.86;31.35;102487.84;5053804;28;20068;-82
2022/07/05 10:53:27;;;;;;;3.78;1.08;;;;;;;27.21;31.68;102491.19;5055591;28;20039;-81
2022/07/05 10:55:56;;;;;;;1.92;0.77;;;;;;;27.33;29.44;102494.16;5055572;28;20091;-79
2022/07/05 10:58:25;;;;;;;3.15;1.02;;;;;;;27.50;28.61;102488.25;5055645;28;20035;-79
2022/07/05 11:01:12;;;;;;;2.13;0.95;;;;;;;27.78;28.91;102488.81;5054367;28;20095;-80
2022/07/05 11:03:41;;;;;;;1.42;0.90;;;;;;;27.65;30.60;102483.41;5055550;28;20107;-82
2022/07/05 11:06:07;;;;;;;1.58;0.90;;;;;;;27.57;29.23;102486.34;5055289;28;20426;-81
2022/07/05 11:08:58;;;;;;;1.52;0.80;;;;;;;27.69;29.57;102492.81;5054787;28;20314;-82
2022/07/05 11:11:36;;;;;;;1.02;0.60;;;;;;;27.69;31.25;102484.63;5053977;28;20119;-82
2022/07/05 11:14:04;;;;;;;2.38;0.95;;;;;;;27.63;27.31;102480.00;5055132;28;20548;-80
2022/07/05 11:16:31;;;;;;;1.35;0.80;;;;;;;28.12;29.12;102494.19;5055066;28;20098;-82
2022/07/05 11:19:11;;;;;;;2.47;0.95;;;;;;;28.20;29.92;102501.31;5055210;28;20033;-79
2022/07/05 11:21:40;;;;;;;1.57;1.00;;;;;;;28.17;28.88;102499.00;5054889;28;20476;-79
2022/07/05 11:24:26;;;;;;;2.92;1.27;;;;;;;28.24;28.54;102499.84;5054969;28;20036;-80
2022/07/05 11:26:53;;;;;;;1.98;0.90;;;;;;;28.33;28.23;102498.53;5053902;28;20078;-78